sensor_id;sensor_type;location;lat;lon;timestamp;pressure;altitude;pressure_sealevel;temperature;humidity
12666;BME280;58531;59.050;17.416;2023-03-13T00:01:10;99640.59;;;-8.82;84.63
12666;BME280;58531;59.050;17.416;2023-03-13T00:03:38;99632.50;;;-8.81;84.47
12666;BME280;58531;59.050;17.416;2023-03-13T00:06:05;99632.91;;;-8.79;84.62
12666;BME280;58531;59.050;17.416;2023-03-13T00:08:34;99632.41;;;-8.84;84.65
12666;BME280;58531;59.050;17.416;2023-03-13T00:11:02;99628.63;;;-8.87;85.16
12666;BME280;58531;59.050;17.416;2023-03-13T00:13:29;99622.63;;;-8.91;85.39
12666;BME280;58531;59.050;17.416;2023-03-13T00:15:59;99618.94;;;-8.90;85.90
12666;BME280;58531;59.050;17.416;2023-03-13T00:18:28;99614.63;;;-8.86;85.82
12666;BME280;58531;59.050;17.416;2023-03-13T00:20:58;99620.84;;;-8.75;85.76
12666;BME280;58531;59.050;17.416;2023-03-13T00:23:26;99613.66;;;-8.66;85.55
12666;BME280;58531;59.050;17.416;2023-03-13T00:25:57;99619.03;;;-8.59;85.33
12666;BME280;58531;59.050;17.416;2023-03-13T00:28:24;99609.84;;;-8.56;85.21
12666;BME280;58531;59.050;17.416;2023-03-13T00:30:59;99608.75;;;-8.55;85.29
12666;BME280;58531;59.050;17.416;2023-03-13T00:33:30;99613.19;;;-8.56;85.20
12666;BME280;58531;59.050;17.416;2023-03-13T00:35:58;99608.00;;;-8.56;84.89
12666;BME280;58531;59.050;17.416;2023-03-13T00:38:26;99618.38;;;-8.56;84.98
12666;BME280;58531;59.050;17.416;2023-03-13T00:41:01;99612.78;;;-8.58;84.87
12666;BME280;58531;59.050;17.416;2023-03-13T00:43:28;99609.09;;;-8.57;85.05
12666;BME280;58531;59.050;17.416;2023-03-13T00:45:55;99612.09;;;-8.55;84.97
12666;BME280;58531;59.050;17.416;2023-03-13T00:48:23;99609.09;;;-8.57;85.18
12666;BME280;58531;59.050;17.416;2023-03-13T00:50:52;99608.75;;;-8.55;85.34
12666;BME280;58531;59.050;17.416;2023-03-13T00:53:20;99606.16;;;-8.55;85.13
12666;BME280;58531;59.050;17.416;2023-03-13T00:55:52;99606.94;;;-8.55;85.33
12666;BME280;58531;59.050;17.416;2023-03-13T00:58:20;99606.16;;;-8.55;85.37
12666;BME280;58531;59.050;17.416;2023-03-13T01:00:47;99593.22;;;-8.55;85.52
12666;BME280;58531;59.050;17.416;2023-03-13T01:03:15;99591.47;;;-8.51;85.79
12666;BME280;58531;59.050;17.416;2023-03-13T01:05:42;99581.47;;;-8.53;85.79
12666;BME280;58531;59.050;17.416;2023-03-13T01:08:12;99579.31;;;-8.51;85.84
12666;BME280;58531;59.050;17.416;2023-03-13T01:10:39;99576.38;;;-8.49;86.02
12666;BME280;58531;59.050;17.416;2023-03-13T01:13:07;99574.38;;;-8.40;85.70
12666;BME280;58531;59.050;17.416;2023-03-13T01:15:34;99565.53;;;-8.39;85.27
12666;BME280;58531;59.050;17.416;2023-03-13T01:18:02;99561.19;;;-8.35;85.19
12666;BME280;58531;59.050;17.416;2023-03-13T01:20:30;99556.75;;;-8.35;85.07
12666;BME280;58531;59.050;17.416;2023-03-13T01:22:57;99567.09;;;-8.35;85.30
12666;BME280;58531;59.050;17.416;2023-03-13T01:25:26;99566.44;;;-8.32;85.07
12666;BME280;58531;59.050;17.416;2023-03-13T01:27:53;99559.69;;;-8.36;85.50
12666;BME280;58531;59.050;17.416;2023-03-13T01:30:21;99558.84;;;-8.40;85.76
12666;BME280;58531;59.050;17.416;2023-03-13T01:32:48;99553.84;;;-8.49;85.94
12666;BME280;58531;59.050;17.416;2023-03-13T01:35:16;99551.09;;;-8.56;86.12
12666;BME280;58531;59.050;17.416;2023-03-13T01:37:45;99552.50;;;-8.58;86.79
12666;BME280;58531;59.050;17.416;2023-03-13T01:40:12;99545.50;;;-8.58;86.84
12666;BME280;58531;59.050;17.416;2023-03-13T01:42:52;99532.13;;;-8.60;87.55
12666;BME280;58531;59.050;17.416;2023-03-13T01:48:34;99522.63;;;-8.56;87.61
12666;BME280;58531;59.050;17.416;2023-03-13T01:51:08;99521.84;;;-8.56;88.21
12666;BME280;58531;59.050;17.416;2023-03-13T01:53:38;99515.59;;;-8.55;88.63
12666;BME280;58531;59.050;17.416;2023-03-13T01:56:10;99506.00;;;-8.55;89.02
12666;BME280;58531;59.050;17.416;2023-03-13T01:58:41;99506.44;;;-8.53;89.49
12666;BME280;58531;59.050;17.416;2023-03-13T02:01:09;99496.75;;;-8.56;89.09
12666;BME280;58531;59.050;17.416;2023-03-13T02:03:37;99497.06;;;-8.57;89.56
12666;BME280;58531;59.050;17.416;2023-03-13T02:06:06;99500.75;;;-8.58;90.24
12666;BME280;58531;59.050;17.416;2023-03-13T02:08:38;99491.63;;;-8.52;90.17
12666;BME280;58531;59.050;17.416;2023-03-13T02:11:15;99481.81;;;-8.47;90.23
12666;BME280;58531;59.050;17.416;2023-03-13T02:13:47;99488.19;;;-8.41;90.86
12666;BME280;58531;59.050;17.416;2023-03-13T02:16:16;99483.59;;;-8.32;90.19
12666;BME280;58531;59.050;17.416;2023-03-13T02:18:45;99475.25;;;-8.25;90.32
12666;BME280;58531;59.050;17.416;2023-03-13T02:21:24;99483.06;;;-8.22;89.87
12666;BME280;58531;59.050;17.416;2023-03-13T02:24:01;99502.06;;;-8.14;89.69
12666;BME280;58531;59.050;17.416;2023-03-13T02:26:30;99493.56;;;-8.15;89.38
12666;BME280;58531;59.050;17.416;2023-03-13T02:28:57;99500.94;;;-8.17;89.75
12666;BME280;58531;59.050;17.416;2023-03-13T02:31:24;99492.59;;;-8.26;89.78
12666;BME280;58531;59.050;17.416;2023-03-13T02:33:52;99499.13;;;-8.32;89.74
12666;BME280;58531;59.050;17.416;2023-03-13T02:36:21;99492.28;;;-8.40;90.03
12666;BME280;58531;59.050;17.416;2023-03-13T02:38:52;99490.72;;;-8.44;90.21
12666;BME280;58531;59.050;17.416;2023-03-13T02:41:22;99491.47;;;-8.44;90.71
12666;BME280;58531;59.050;17.416;2023-03-13T02:43:51;99485.13;;;-8.46;91.10
12666;BME280;58531;59.050;17.416;2023-03-13T02:46:19;99481.88;;;-8.43;92.13
12666;BME280;58531;59.050;17.416;2023-03-13T02:48:48;99484.13;;;-8.42;91.64
12666;BME280;58531;59.050;17.416;2023-03-13T02:51:19;99478.59;;;-8.40;91.84
12666;BME280;58531;59.050;17.416;2023-03-13T02:53:47;99485.69;;;-8.37;92.01
12666;BME280;58531;59.050;17.416;2023-03-13T02:56:16;99484.69;;;-8.33;91.98
12666;BME280;58531;59.050;17.416;2023-03-13T02:58:46;99473.75;;;-8.26;92.38
12666;BME280;58531;59.050;17.416;2023-03-13T03:01:14;99479.41;;;-8.21;92.29
12666;BME280;58531;59.050;17.416;2023-03-13T03:03:43;99472.16;;;-8.12;92.41
12666;BME280;58531;59.050;17.416;2023-03-13T03:06:10;99466.47;;;-8.02;92.07
12666;BME280;58531;59.050;17.416;2023-03-13T03:08:37;99462.09;;;-7.98;92.09
12666;BME280;58531;59.050;17.416;2023-03-13T03:11:07;99458.47;;;-7.94;92.26
12666;BME280;58531;59.050;17.416;2023-03-13T03:13:34;99458.94;;;-7.88;91.92
12666;BME280;58531;59.050;17.416;2023-03-13T03:16:05;99450.50;;;-7.85;92.04
12666;BME280;58531;59.050;17.416;2023-03-13T03:18:34;99455.91;;;-7.75;92.18
12666;BME280;58531;59.050;17.416;2023-03-13T03:21:02;99447.09;;;-7.70;92.20
12666;BME280;58531;59.050;17.416;2023-03-13T03:23:31;99449.41;;;-7.65;91.92
12666;BME280;58531;59.050;17.416;2023-03-13T03:25:59;99446.41;;;-7.67;91.65
12666;BME280;58531;59.050;17.416;2023-03-13T03:28:26;99434.53;;;-7.68;92.14
12666;BME280;58531;59.050;17.416;2023-03-13T03:30:53;99436.72;;;-7.70;91.85
12666;BME280;58531;59.050;17.416;2023-03-13T03:33:21;99435.22;;;-7.71;92.29
12666;BME280;58531;59.050;17.416;2023-03-13T03:35:49;99423.31;;;-7.76;91.73
12666;BME280;58531;59.050;17.416;2023-03-13T03:38:16;99420.22;;;-7.81;91.54
12666;BME280;58531;59.050;17.416;2023-03-13T03:40:44;99426.22;;;-7.77;92.13
12666;BME280;58531;59.050;17.416;2023-03-13T03:43:12;99422.13;;;-7.78;92.24
12666;BME280;58531;59.050;17.416;2023-03-13T03:45:39;99423.31;;;-7.76;92.42
12666;BME280;58531;59.050;17.416;2023-03-13T03:48:06;99425.63;;;-7.71;92.25
12666;BME280;58531;59.050;17.416;2023-03-13T03:50:33;99425.03;;;-7.61;92.05
12666;BME280;58531;59.050;17.416;2023-03-13T03:53:02;99409.69;;;-7.50;91.71
12666;BME280;58531;59.050;17.416;2023-03-13T03:55:29;99394.31;;;-7.40;91.25
12666;BME280;58531;59.050;17.416;2023-03-13T03:57:56;99382.63;;;-7.30;90.82
12666;BME280;58531;59.050;17.416;2023-03-13T04:00:23;99387.50;;;-7.25;90.43
12666;BME280;58531;59.050;17.416;2023-03-13T04:02:51;99389.13;;;-7.17;90.44
12666;BME280;58531;59.050;17.416;2023-03-13T04:05:19;99382.97;;;-7.09;89.97
12666;BME280;58531;59.050;17.416;2023-03-13T04:07:46;99381.22;;;-7.02;90.01
12666;BME280;58531;59.050;17.416;2023-03-13T04:10:15;99379.50;;;-6.94;90.08
12666;BME280;58531;59.050;17.416;2023-03-13T04:12:43;99381.06;;;-6.87;90.07
12666;BME280;58531;59.050;17.416;2023-03-13T04:15:10;99385.97;;;-6.82;89.97
12666;BME280;58531;59.050;17.416;2023-03-13T04:17:38;99390.13;;;-6.77;90.66
12666;BME280;58531;59.050;17.416;2023-03-13T04:20:05;99379.34;;;-6.79;90.01
12666;BME280;58531;59.050;17.416;2023-03-13T04:22:35;99365.59;;;-6.80;89.65
12666;BME280;58531;59.050;17.416;2023-03-13T04:25:02;99360.47;;;-6.76;90.92
12666;BME280;58531;59.050;17.416;2023-03-13T04:27:31;99350.94;;;-6.69;90.99
12666;BME280;58531;59.050;17.416;2023-03-13T04:29:59;99347.63;;;-6.66;91.64
12666;BME280;58531;59.050;17.416;2023-03-13T04:32:26;99339.16;;;-6.59;91.80
12666;BME280;58531;59.050;17.416;2023-03-13T04:34:53;99332.63;;;-6.50;93.30
12666;BME280;58531;59.050;17.416;2023-03-13T04:37:20;99324.16;;;-6.43;92.80
12666;BME280;58531;59.050;17.416;2023-03-13T04:39:47;99320.13;;;-6.41;92.54
12666;BME280;58531;59.050;17.416;2023-03-13T04:42:16;99320.16;;;-6.37;93.07
12666;BME280;58531;59.050;17.416;2023-03-13T04:44:44;99322.06;;;-6.34;93.79
12666;BME280;58531;59.050;17.416;2023-03-13T04:47:11;99325.16;;;-6.22;95.09
12666;BME280;58531;59.050;17.416;2023-03-13T04:49:46;99323.34;;;-6.18;95.33
12666;BME280;58531;59.050;17.416;2023-03-13T04:52:14;99311.16;;;-6.14;95.02
12666;BME280;58531;59.050;17.416;2023-03-13T04:54:41;99303.19;;;-5.95;96.12
12666;BME280;58531;59.050;17.416;2023-03-13T04:57:08;99295.41;;;-5.95;95.13
12666;BME280;58531;59.050;17.416;2023-03-13T04:59:35;99285.06;;;-5.88;96.51
12666;BME280;58531;59.050;17.416;2023-03-13T05:02:04;99292.59;;;-5.73;97.19
12666;BME280;58531;59.050;17.416;2023-03-13T05:04:31;99292.34;;;-5.57;98.16
12666;BME280;58531;59.050;17.416;2023-03-13T05:06:58;99281.63;;;-5.49;97.17
12666;BME280;58531;59.050;17.416;2023-03-13T05:09:25;99274.22;;;-5.47;96.63
12666;BME280;58531;59.050;17.416;2023-03-13T05:11:53;99279.47;;;-5.40;97.28
12666;BME280;58531;59.050;17.416;2023-03-13T05:14:19;99271.38;;;-5.28;97.49
12666;BME280;58531;59.050;17.416;2023-03-13T05:16:47;99272.97;;;-5.13;97.67
12666;BME280;58531;59.050;17.416;2023-03-13T05:19:15;99271.97;;;-4.94;96.77
12666;BME280;58531;59.050;17.416;2023-03-13T05:21:44;99250.06;;;-4.86;96.15
12666;BME280;58531;59.050;17.416;2023-03-13T05:24:11;99249.34;;;-4.80;95.59
12666;BME280;58531;59.050;17.416;2023-03-13T05:26:39;99247.88;;;-4.70;94.98
12666;BME280;58531;59.050;17.416;2023-03-13T05:29:06;99236.03;;;-4.58;94.30
12666;BME280;58531;59.050;17.416;2023-03-13T05:31:33;99234.59;;;-4.45;93.59
12666;BME280;58531;59.050;17.416;2023-03-13T05:34:03;99233.88;;;-4.28;92.48
12666;BME280;58531;59.050;17.416;2023-03-13T05:36:33;99229.44;;;-4.10;91.04
12666;BME280;58531;59.050;17.416;2023-03-13T05:39:01;99225.00;;;-3.99;90.21
12666;BME280;58531;59.050;17.416;2023-03-13T05:41:28;99223.16;;;-3.88;89.16
12666;BME280;58531;59.050;17.416;2023-03-13T05:43:58;99225.72;;;-3.81;89.12
12666;BME280;58531;59.050;17.416;2023-03-13T05:46:26;99226.47;;;-3.70;88.34
12666;BME280;58531;59.050;17.416;2023-03-13T05:48:53;99212.31;;;-3.62;88.30
12666;BME280;58531;59.050;17.416;2023-03-13T05:51:20;99211.56;;;-3.52;87.83
12666;BME280;58531;59.050;17.416;2023-03-13T05:53:49;99204.84;;;-3.46;87.45
12666;BME280;58531;59.050;17.416;2023-03-13T05:56:17;99196.25;;;-3.40;87.67
12666;BME280;58531;59.050;17.416;2023-03-13T05:58:46;99188.41;;;-3.29;87.17
12666;BME280;58531;59.050;17.416;2023-03-13T06:01:14;99173.09;;;-3.20;86.95
12666;BME280;58531;59.050;17.416;2023-03-13T06:03:42;99174.22;;;-3.18;86.78
12666;BME280;58531;59.050;17.416;2023-03-13T06:06:09;99168.56;;;-3.06;86.67
12666;BME280;58531;59.050;17.416;2023-03-13T06:08:38;99157.72;;;-2.97;86.46
12666;BME280;58531;59.050;17.416;2023-03-13T06:11:06;99153.22;;;-2.86;85.93
12666;BME280;58531;59.050;17.416;2023-03-13T06:13:34;99154.25;;;-2.73;85.68
12666;BME280;58531;59.050;17.416;2023-03-13T06:16:00;99153.13;;;-2.69;85.98
12666;BME280;58531;59.050;17.416;2023-03-13T06:18:27;99142.59;;;-2.58;86.15
12666;BME280;58531;59.050;17.416;2023-03-13T06:20:56;99144.03;;;-2.50;86.11
12666;BME280;58531;59.050;17.416;2023-03-13T06:23:24;99136.53;;;-2.41;85.99
12666;BME280;58531;59.050;17.416;2023-03-13T06:25:52;99133.06;;;-2.28;85.72
12666;BME280;58531;59.050;17.416;2023-03-13T06:28:21;99134.03;;;-2.12;86.19
12666;BME280;58531;59.050;17.416;2023-03-13T06:30:48;99130.91;;;-1.93;85.66
12666;BME280;58531;59.050;17.416;2023-03-13T06:33:15;99132.69;;;-1.83;85.89
12666;BME280;58531;59.050;17.416;2023-03-13T06:35:42;99121.22;;;-1.59;85.58
12666;BME280;58531;59.050;17.416;2023-03-13T06:38:10;99119.59;;;-1.46;85.72
12666;BME280;58531;59.050;17.416;2023-03-13T06:40:41;99113.75;;;-1.27;85.40
12666;BME280;58531;59.050;17.416;2023-03-13T06:43:08;99111.25;;;-1.04;85.80
12666;BME280;58531;59.050;17.416;2023-03-13T06:45:36;99106.22;;;-0.92;86.14
12666;BME280;58531;59.050;17.416;2023-03-13T06:48:03;99092.94;;;-0.78;87.18
12666;BME280;58531;59.050;17.416;2023-03-13T06:50:32;99082.34;;;-0.71;87.87
12666;BME280;58531;59.050;17.416;2023-03-13T06:52:59;99080.03;;;-0.65;90.32
12666;BME280;58531;59.050;17.416;2023-03-13T06:55:27;99091.19;;;-0.61;92.54
12666;BME280;58531;59.050;17.416;2023-03-13T06:57:55;99076.50;;;-0.55;93.11
12666;BME280;58531;59.050;17.416;2023-03-13T07:00:24;99057.78;;;-0.54;93.96
12666;BME280;58531;59.050;17.416;2023-03-13T07:02:52;99064.88;;;-0.54;92.96
12666;BME280;58531;59.050;17.416;2023-03-13T07:05:20;99055.19;;;-0.57;94.13
12666;BME280;58531;59.050;17.416;2023-03-13T07:07:47;99047.31;;;-0.57;94.32
12666;BME280;58531;59.050;17.416;2023-03-13T07:10:14;99044.31;;;-0.56;94.08
12666;BME280;58531;59.050;17.416;2023-03-13T07:12:41;99036.50;;;-0.59;95.94
12666;BME280;58531;59.050;17.416;2023-03-13T07:15:09;99033.53;;;-0.61;97.00
12666;BME280;58531;59.050;17.416;2023-03-13T07:17:36;99020.16;;;-0.67;97.92
12666;BME280;58531;59.050;17.416;2023-03-13T07:20:05;99004.31;;;-0.60;98.17
12666;BME280;58531;59.050;17.416;2023-03-13T07:22:35;99009.38;;;-0.49;98.14
12666;BME280;58531;59.050;17.416;2023-03-13T07:25:02;98999.75;;;-0.56;99.01
12666;BME280;58531;59.050;17.416;2023-03-13T07:27:29;98976.50;;;-0.54;98.89
12666;BME280;58531;59.050;17.416;2023-03-13T07:29:56;98977.50;;;-0.48;100.00
12666;BME280;58531;59.050;17.416;2023-03-13T07:32:23;98978.25;;;-0.47;100.00
12666;BME280;58531;59.050;17.416;2023-03-13T07:34:51;98986.00;;;-0.40;100.00
12666;BME280;58531;59.050;17.416;2023-03-13T07:37:20;98988.19;;;-0.35;100.00
12666;BME280;58531;59.050;17.416;2023-03-13T07:39:47;98981.34;;;-0.29;100.00
12666;BME280;58531;59.050;17.416;2023-03-13T07:42:16;98982.06;;;-0.29;100.00
12666;BME280;58531;59.050;17.416;2023-03-13T07:44:43;98979.50;;;-0.32;100.00
12666;BME280;58531;59.050;17.416;2023-03-13T07:47:09;98952.41;;;-0.26;100.00
12666;BME280;58531;59.050;17.416;2023-03-13T07:49:36;98940.69;;;-0.21;100.00
12666;BME280;58531;59.050;17.416;2023-03-13T07:52:07;98942.00;;;-0.10;100.00
12666;BME280;58531;59.050;17.416;2023-03-13T07:54:35;98934.81;;;-0.06;100.00
12666;BME280;58531;59.050;17.416;2023-03-13T07:57:02;98926.78;;;0.01;100.00
12666;BME280;58531;59.050;17.416;2023-03-13T07:59:29;98919.19;;;0.06;100.00
12666;BME280;58531;59.050;17.416;2023-03-13T08:01:57;98909.75;;;0.09;100.00
12666;BME280;58531;59.050;17.416;2023-03-13T08:04:24;98898.63;;;0.21;100.00
12666;BME280;58531;59.050;17.416;2023-03-13T08:06:50;98898.63;;;0.21;100.00
12666;BME280;58531;59.050;17.416;2023-03-13T08:09:19;98895.75;;;0.15;100.00
12666;BME280;58531;59.050;17.416;2023-03-13T08:11:47;98890.03;;;0.20;100.00
12666;BME280;58531;59.050;17.416;2023-03-13T08:14:14;98863.63;;;0.27;100.00
12666;BME280;58531;59.050;17.416;2023-03-13T08:16:41;98869.03;;;0.36;100.00
12666;BME280;58531;59.050;17.416;2023-03-13T08:19:09;98860.34;;;0.39;100.00
12666;BME280;58531;59.050;17.416;2023-03-13T08:21:36;98852.47;;;0.39;100.00
12666;BME280;58531;59.050;17.416;2023-03-13T08:24:05;98866.09;;;0.34;100.00
12666;BME280;58531;59.050;17.416;2023-03-13T08:26:35;98861.75;;;0.28;100.00
12666;BME280;58531;59.050;17.416;2023-03-13T08:29:06;98845.31;;;0.24;100.00
12666;BME280;58531;59.050;17.416;2023-03-13T08:31:34;98845.91;;;0.31;100.00
12666;BME280;58531;59.050;17.416;2023-03-13T08:34:01;98847.03;;;0.30;100.00
12666;BME280;58531;59.050;17.416;2023-03-13T08:36:30;98839.09;;;0.34;100.00
12666;BME280;58531;59.050;17.416;2023-03-13T08:38:59;98810.91;;;0.38;100.00
12666;BME280;58531;59.050;17.416;2023-03-13T08:41:28;98811.22;;;0.40;100.00
12666;BME280;58531;59.050;17.416;2023-03-13T08:43:58;98794.72;;;0.39;100.00
12666;BME280;58531;59.050;17.416;2023-03-13T08:46:28;98788.31;;;0.40;100.00
12666;BME280;58531;59.050;17.416;2023-03-13T08:48:56;98784.38;;;0.32;100.00
12666;BME280;58531;59.050;17.416;2023-03-13T08:51:25;98778.41;;;0.32;100.00
12666;BME280;58531;59.050;17.416;2023-03-13T08:53:53;98769.72;;;0.35;100.00
12666;BME280;58531;59.050;17.416;2023-03-13T08:56:23;98760.25;;;0.37;100.00
12666;BME280;58531;59.050;17.416;2023-03-13T08:58:51;98754.69;;;0.35;100.00
12666;BME280;58531;59.050;17.416;2023-03-13T09:01:19;98746.97;;;0.28;100.00
12666;BME280;58531;59.050;17.416;2023-03-13T09:03:48;98738.59;;;0.33;100.00
12666;BME280;58531;59.050;17.416;2023-03-13T09:06:16;98740.84;;;0.35;100.00
12666;BME280;58531;59.050;17.416;2023-03-13T09:08:43;98734.94;;;0.31;100.00
12666;BME280;58531;59.050;17.416;2023-03-13T09:11:12;98721.69;;;0.34;100.00
12666;BME280;58531;59.050;17.416;2023-03-13T09:13:41;98713.66;;;0.41;100.00
12666;BME280;58531;59.050;17.416;2023-03-13T09:16:10;98712.34;;;0.33;100.00
12666;BME280;58531;59.050;17.416;2023-03-13T09:18:38;98695.38;;;0.38;100.00
12666;BME280;58531;59.050;17.416;2023-03-13T09:21:08;98694.13;;;0.42;100.00
12666;BME280;58531;59.050;17.416;2023-03-13T09:23:36;98682.81;;;0.45;100.00
12666;BME280;58531;59.050;17.416;2023-03-13T09:26:03;98675.75;;;0.42;100.00
12666;BME280;58531;59.050;17.416;2023-03-13T09:28:30;98667.75;;;0.62;100.00
12666;BME280;58531;59.050;17.416;2023-03-13T09:31:06;98661.13;;;0.57;100.00
12666;BME280;58531;59.050;17.416;2023-03-13T09:33:33;98639.28;;;0.60;100.00
12666;BME280;58531;59.050;17.416;2023-03-13T09:36:00;98636.03;;;0.69;100.00
12666;BME280;58531;59.050;17.416;2023-03-13T09:38:29;98632.28;;;0.82;100.00
12666;BME280;58531;59.050;17.416;2023-03-13T09:41:01;98624.09;;;0.80;100.00
12666;BME280;58531;59.050;17.416;2023-03-13T09:43:38;98615.06;;;0.81;100.00
12666;BME280;58531;59.050;17.416;2023-03-13T09:46:15;98598.97;;;0.79;100.00
12666;BME280;58531;59.050;17.416;2023-03-13T09:48:46;98591.94;;;0.76;100.00
12666;BME280;58531;59.050;17.416;2023-03-13T09:51:17;98583.63;;;0.78;100.00
12666;BME280;58531;59.050;17.416;2023-03-13T09:53:50;98574.28;;;0.77;100.00
12666;BME280;58531;59.050;17.416;2023-03-13T09:56:22;98568.63;;;0.91;100.00
12666;BME280;58531;59.050;17.416;2023-03-13T09:58:53;98562.75;;;0.99;100.00
12666;BME280;58531;59.050;17.416;2023-03-13T10:01:26;98551.59;;;1.08;100.00
12666;BME280;58531;59.050;17.416;2023-03-13T10:04:01;98549.81;;;1.05;100.00
12666;BME280;58531;59.050;17.416;2023-03-13T10:06:34;98543.00;;;1.07;100.00
12666;BME280;58531;59.050;17.416;2023-03-13T10:09:07;98545.81;;;1.00;100.00
12666;BME280;58531;59.050;17.416;2023-03-13T10:11:45;98525.97;;;0.99;100.00
12666;BME280;58531;59.050;17.416;2023-03-13T10:14:20;98533.53;;;0.97;100.00
12666;BME280;58531;59.050;17.416;2023-03-13T10:16:51;98518.38;;;1.01;100.00
12666;BME280;58531;59.050;17.416;2023-03-13T10:19:25;98511.13;;;1.05;100.00
12666;BME280;58531;59.050;17.416;2023-03-13T10:21:54;98509.34;;;1.02;100.00
12666;BME280;58531;59.050;17.416;2023-03-13T10:24:31;98483.69;;;1.06;100.00
12666;BME280;58531;59.050;17.416;2023-03-13T10:26:59;98490.22;;;0.89;100.00
12666;BME280;58531;59.050;17.416;2023-03-13T10:29:27;98474.56;;;0.98;100.00
12666;BME280;58531;59.050;17.416;2023-03-13T10:31:57;98449.56;;;0.94;100.00
12666;BME280;58531;59.050;17.416;2023-03-13T10:34:25;98462.88;;;0.99;100.00
12666;BME280;58531;59.050;17.416;2023-03-13T10:36:58;98454.59;;;1.01;100.00
12666;BME280;58531;59.050;17.416;2023-03-13T10:39:28;98438.41;;;1.02;100.00
12666;BME280;58531;59.050;17.416;2023-03-13T10:41:58;98441.88;;;0.99;100.00
12666;BME280;58531;59.050;17.416;2023-03-13T10:44:34;98426.00;;;0.90;100.00
12666;BME280;58531;59.050;17.416;2023-03-13T10:47:02;98424.53;;;0.89;100.00
12666;BME280;58531;59.050;17.416;2023-03-13T10:49:30;98413.72;;;0.87;100.00
12666;BME280;58531;59.050;17.416;2023-03-13T10:51:59;98399.63;;;0.94;100.00
12666;BME280;58531;59.050;17.416;2023-03-13T10:54:30;98396.69;;;0.92;100.00
12666;BME280;58531;59.050;17.416;2023-03-13T10:57:21;98381.44;;;0.99;100.00
12666;BME280;58531;59.050;17.416;2023-03-13T10:59:53;98378.69;;;1.03;100.00
12666;BME280;58531;59.050;17.416;2023-03-13T11:02:24;98366.06;;;1.10;100.00
12666;BME280;58531;59.050;17.416;2023-03-13T11:04:52;98360.38;;;1.12;100.00
12666;BME280;58531;59.050;17.416;2023-03-13T11:07:21;98352.47;;;1.24;100.00
12666;BME280;58531;59.050;17.416;2023-03-13T11:09:59;98353.94;;;1.25;100.00
12666;BME280;58531;59.050;17.416;2023-03-13T11:12:27;98329.91;;;1.35;100.00
12666;BME280;58531;59.050;17.416;2023-03-13T11:14:58;98339.00;;;1.43;100.00
12666;BME280;58531;59.050;17.416;2023-03-13T11:17:31;98323.03;;;1.38;100.00
12666;BME280;58531;59.050;17.416;2023-03-13T11:20:06;98315.34;;;1.43;100.00
12666;BME280;58531;59.050;17.416;2023-03-13T11:22:52;98321.69;;;1.55;100.00
12666;BME280;58531;59.050;17.416;2023-03-13T11:25:28;98305.84;;;1.46;100.00
12666;BME280;58531;59.050;17.416;2023-03-13T11:28:09;98302.69;;;1.51;100.00
12666;BME280;58531;59.050;17.416;2023-03-13T11:31:07;98291.00;;;1.52;100.00
12666;BME280;58531;59.050;17.416;2023-03-13T11:33:46;98286.28;;;1.47;100.00
12666;BME280;58531;59.050;17.416;2023-03-13T11:36:21;98281.28;;;1.40;100.00
12666;BME280;58531;59.050;17.416;2023-03-13T11:38:54;98256.66;;;1.25;100.00
12666;BME280;58531;59.050;17.416;2023-03-13T11:41:39;98255.75;;;1.19;100.00
12666;BME280;58531;59.050;17.416;2023-03-13T11:44:18;98233.81;;;1.13;100.00
12666;BME280;58531;59.050;17.416;2023-03-13T11:46:58;98231.72;;;1.08;100.00
12666;BME280;58531;59.050;17.416;2023-03-13T11:49:45;98215.81;;;1.12;100.00
12666;BME280;58531;59.050;17.416;2023-03-13T11:52:26;98216.25;;;1.10;100.00
12666;BME280;58531;59.050;17.416;2023-03-13T11:55:11;98207.31;;;1.08;100.00
12666;BME280;58531;59.050;17.416;2023-03-13T11:57:51;98198.66;;;0.98;100.00
12666;BME280;58531;59.050;17.416;2023-03-13T12:00:28;98188.75;;;1.02;100.00
12666;BME280;58531;59.050;17.416;2023-03-13T12:03:01;98178.56;;;1.04;100.00
12666;BME280;58531;59.050;17.416;2023-03-13T12:05:37;98166.88;;;1.05;100.00
12666;BME280;58531;59.050;17.416;2023-03-13T12:08:11;98166.63;;;1.12;100.00
12666;BME280;58531;59.050;17.416;2023-03-13T12:10:45;98154.41;;;1.18;100.00
12666;BME280;58531;59.050;17.416;2023-03-13T12:13:16;98143.44;;;1.19;100.00
12666;BME280;58531;59.050;17.416;2023-03-13T12:15:48;98129.44;;;1.22;100.00
12666;BME280;58531;59.050;17.416;2023-03-13T12:18:22;98124.03;;;1.17;100.00
12666;BME280;58531;59.050;17.416;2023-03-13T12:20:54;98106.22;;;1.21;100.00
12666;BME280;58531;59.050;17.416;2023-03-13T12:23:28;98099.50;;;1.20;100.00
12666;BME280;58531;59.050;17.416;2023-03-13T12:26:04;98090.72;;;1.14;100.00
12666;BME280;58531;59.050;17.416;2023-03-13T12:28:38;98077.13;;;1.15;100.00
12666;BME280;58531;59.050;17.416;2023-03-13T12:31:15;98065.31;;;1.11;100.00
12666;BME280;58531;59.050;17.416;2023-03-13T12:33:49;98055.78;;;1.05;100.00
12666;BME280;58531;59.050;17.416;2023-03-13T12:36:23;98037.81;;;1.03;100.00
12666;BME280;58531;59.050;17.416;2023-03-13T12:38:55;98022.94;;;1.00;100.00
12666;BME280;58531;59.050;17.416;2023-03-13T12:41:26;98021.16;;;0.97;100.00
12666;BME280;58531;59.050;17.416;2023-03-13T12:43:57;98004.38;;;0.95;100.00
12666;BME280;58531;59.050;17.416;2023-03-13T12:46:36;97995.19;;;0.99;100.00
12666;BME280;58531;59.050;17.416;2023-03-13T12:49:36;97978.84;;;1.04;100.00
12666;BME280;58531;59.050;17.416;2023-03-13T12:52:21;97977.25;;;0.98;100.00
12666;BME280;58531;59.050;17.416;2023-03-13T12:55:01;97949.22;;;0.95;100.00
12666;BME280;58531;59.050;17.416;2023-03-13T13:00:39;97931.50;;;0.86;100.00
12666;BME280;58531;59.050;17.416;2023-03-13T13:03:14;97922.19;;;0.94;100.00
12666;BME280;58531;59.050;17.416;2023-03-13T13:05:58;97913.72;;;0.90;100.00
12666;BME280;58531;59.050;17.416;2023-03-13T13:08:26;97897.38;;;0.86;100.00
12666;BME280;58531;59.050;17.416;2023-03-13T13:13:56;97870.09;;;0.93;100.00